^^
Saratoga-Weather Station Historical Data
Daily Summary for March 01, 2021 Units:  English    Metric   Both
Daily Weekly Monthly Yearly Custom
  High: Low: Average:
Temperature: 38.5 °F 36.1 °F 37.2 °F
Dew Point: 31.5 °F 30.4 °F 30.9 °F
Humidity: 81% 75% 78%
Wind Speed: 0.9mph 0mph 0.1mph
Wind Gust: 2mph - -
Wind- - ESE
Pressure: 30.5 in 30.5 in -
Precipitation: 0 in    
Historical Graphs
 
 
Tabular Data for March 01, 2021
Time Temperature Dew Point Pressure Wind Wind Speed Wind Gust Humidity Rainfall Rate (Hourly) solar
00:04 38.3 °F 31.5 °F 30.5 in Calm   2 mph 76% 0 in 0 W/m2
00:09 38.3 °F 31.1 °F 30.5 in Calm   1 mph 75% 0 in 0 W/m2
00:14 38.3 °F 31.1 °F 30.5 in Calm   2 mph 75% 0 in 0 W/m2
00:19 38.5 °F 31.3 °F 30.5 in Calm   1 mph 75% 0 in 0 W/m2
00:24 38.5 °F 31.3 °F 30.5 in Calm   2 mph 75% 0 in 0 W/m2
00:29 38.3 °F 31.1 °F 30.5 in ESE 0.9 mph 1 mph 75% 0 in 0 W/m2
00:34 38.1 °F 30.9 °F 30.5 in Calm   1 mph 75% 0 in 0 W/m2
00:39 37.8 °F 30.9 °F 30.5 in Calm     76% 0 in 0 W/m2
00:44 37.8 °F 31.3 °F 30.5 in Calm   1 mph 77% 0 in 0 W/m2
00:49 37.6 °F 31.1 °F 30.5 in Calm     77% 0 in 0 W/m2
00:54 37.2 °F 30.7 °F 30.5 in Calm   1 mph 77% 0 in 0 W/m2
00:59 37.2 °F 30.7 °F 30.5 in Calm     77% 0 in 0 W/m2
01:04 37 °F 30.7 °F 30.5 in Calm   2 mph 78% 0 in 0 W/m2
01:09 36.9 °F 30.9 °F 30.5 in Calm     79% 0 in 0 W/m2
01:14 36.7 °F 30.7 °F 30.5 in Calm   2 mph 79% 0 in 0 W/m2
01:19 36.3 °F 30.4 °F 30.5 in ESE 0.9 mph 1 mph 79% 0 in 0 W/m2
01:24 36.3 °F 30.4 °F 30.5 in Calm   1 mph 79% 0 in 0 W/m2
01:29 36.3 °F 30.7 °F 30.5 in Calm   1 mph 80% 0 in 0 W/m2
01:34 36.1 °F 30.6 °F 30.5 in Calm     80% 0 in 0 W/m2
01:44 36.1 °F 30.6 °F 30.5 in Calm     80% 0 in 0 W/m2
01:49 36.1 °F 30.9 °F 30.5 in Calm   1 mph 81% 0 in 0 W/m2
01:54 36.1 °F 30.9 °F 30.5 in ESE 0.9 mph 2 mph 81% 0 in 0 W/m2
01:59 36.1 °F 30.9 °F 30.5 in Calm     81% 0 in 0 W/m2
02:04 36.3 °F 31.1 °F 30.5 in Calm   2 mph 81% 0 in 0 W/m2
Juneau County Weather
Compliments of Weather Underground - 2 mb